Details From SBKP - Sao Paulo Viracopos
To SBGW - GUARATINGUETA
Flight Number -
Tags generated
Created
Modified
Stats Distance 108 nm / 199 km
Max Altitude 11,200 ft / 3,414 m
Waypoints 3
Social Downloads 1
Likes 0
Share VATSIM

Download

Looking for another format? Having issues loading an existing format? Contact us
Advertisement - Login to hide

Notes

Basic altitude profile: - Ascent Rate: 2500ft/min - Ascent Speed: 250kts - Cruise Altitude: 35000ft - Cruise Speed: 420kts - Descent Rate: 1500ft/min - Descent Speed: 250kts Options: - Use NATs: yes - Use PACOTS: yes - Use low airways: yes - Use high airways: yes

Route

SBKP BGC SBGW

ID Type Via Altitude Latitude Longitude Leg Dist Tot Dist Heading (true) Name
O SBKP APT - 0 ft / 0 m -23.00738˚ -47.13452˚ - 0 nm - Sao Paulo Viracopos
BGC VOR - 11,200 ft / 3,414 m -22.95314˚ -46.56812˚ 31 nm 31 nm 84° / 84° BRAGANCA VOR-DME
O SBGW APT - 0 ft / 0 m -22.79161˚ -45.20478˚ 76 nm 107 nm 83° / 82° GUARATINGUETA

Altitude Profile

Advertisement - Login to hide

SBKP

Details ICAO SBKP (VCP)
Name Sao Paulo Viracopos
Region Brazil
Timezone America/Sao_Paulo (UTC-3.0)
Stats Elevation 2,170 ft / 661 m (AMSL)
Location -23.007383° -47.134522°
Runways 1
Magnetic Variation 21.249° W

METAR

SBKP 240200Z 13014KT 8000 NSC 15/12 Q1024

Decode

TAF

TAF SBKP 232231Z 2400/2424 12008KT CAVOK TN12/2408Z TX26/2418Z PROB30 2409/2411 5000 BCFG BR NSC BECMG 2411/2413 07005KT PROB30 2415/2418 30005KT BECMG 2418/2420 22005KT BECMG 2420/2422 15007KT RMK PGO

Decode

Departure Runways

ID Width Length Bearing (true) Bearing (mag) Surface Threshold Offset Overrun Length
15 148 ft / 45 m 10,639 ft / 3,243 m 127.91° 149.16° Asphalt 0 ft / 0 m 205 ft / 62 m
33 148 ft / 45 m 10,639 ft / 3,243 m 307.90° 329.15° Asphalt 0 ft / 0 m 205 ft / 62 m

SBGW

Details ICAO SBGW
Name GUARATINGUETA
Region Brazil
Timezone America/Sao_Paulo (UTC-3.0)
Stats Elevation 1,761 ft / 537 m (AMSL)
Location -22.791608° -45.204779°
Runways 1
Magnetic Variation 22.095° W

METAR

SBGW 240100Z 24004KT 200V290 8000 BKN020 17/13 Q1026

Decode

TAF

TAF SBGW 231615Z 2318/2406 20007KT CAVOK TX25/2318Z TN12/2405Z BECMG 2320/2322 18005KT 9999 FEW030 BECMG 2402/2404 09006KT RMK PCX

Decode

Destination Runways

ID Width Length Bearing (true) Bearing (mag) Surface Threshold Offset Overrun Length
02 98 ft / 30 m 5,111 ft / 1,558 m 359.00° 21.10° Asphalt 0 ft / 0 m 0 ft / 0 m
20 98 ft / 30 m 5,111 ft / 1,558 m 179.00° 201.10° Asphalt 0 ft / 0 m 0 ft / 0 m